Date,TemperatureHighF,TemperatureAvgF,TemperatureLowF,DewpointHighF,DewpointAvgF,DewpointLowF,HumidityHigh,HumidityAvg,HumidityLow,PressureMaxIn,PressureMinIn,WindSpeedMaxMPH,WindSpeedAvgMPH,GustSpeedMaxMPH,PrecipitationSumIn
2013-1-12,74,72,69,71,70,68,98,92,88,29.86,29.69,4,2,6,0.00
2013-1-13,70,50,41,68,47,39,95,91,83,30.07,29.72,4,1,11,0.00
2013-1-14,44,40,36,41,38,35,95,91,87,30.16,30.00,3,1,11,0.00
2013-1-15,39,35,33,36,33,31,94,92,89,30.08,29.95,3,1,7,0.00
2013-1-16,58,41,32,39,32,28,93,75,39,30.20,30.05,2,1,7,0.00
2013-1-17,66,43,26,39,32,24,92,70,32,30.40,30.19,2,0,6,0.00
2013-1-18,36,35,34,33,33,31,92,91,90,30.42,30.40,0,0,0,0.00
2013-1-31,49,49,49,42,42,42,77,76,76,30.25,30.24,0,0,0,0.00
2013-2-1,75,54,40,47,42,32,81,65,33,30.32,30.20,1,0,3,0.00
2013-2-2,79,57,40,59,46,32,79,67,46,30.21,30.10,2,0,4,0.00
2013-2-3,80,57,43,48,39,34,80,56,22,30.26,30.02,2,0,5,0.00
2013-2-4,70,56,43,61,46,34,79,70,61,30.02,29.80,1,0,4,0.00
2013-2-5,82,66,59,69,53,45,75,63,57,29.96,29.83,1,0,3,0.00
2013-2-6,62,60,58,45,43,42,57,55,52,30.01,29.80,3,0,12,0.00
2013-2-7,68,60,54,57,44,37,68,57,51,29.92,29.82,0,0,1,0.00
2013-2-8,67,59,49,55,46,35,70,63,50,30.11,29.92,3,1,6,0.00
2013-2-9,64,55,43,51,40,29,65,57,49,30.10,29.84,3,1,6,0.00
2013-2-10,73,63,58,55,44,38,63,48,45,29.91,29.73,6,1,12,0.00
2013-2-11,60,53,49,49,37,31,69,54,46,30.03,29.89,3,1,7,0.00
2013-2-12,61,55,50,44,36,32,60,49,43,29.94,29.72,2,0,5,0.00
2013-2-13,52,52,51,42,40,38,69,65,59,29.95,29.88,2,1,5,0.00
2013-2-15,75,60,47,47,42,35,70,53,33,30.24,30.06,4,2,10,0.00
2013-2-16,65,47,34,35,30,24,74,54,27,30.36,30.19,4,1,6,0.00
2013-2-17,71,51,31,49,37,18,71,58,39,30.21,30.03,4,1,10,0.00
2013-2-18,71,64,52,59,48,31,68,59,40,30.03,29.78,6,1,13,0.00
2013-2-19,72,56,44,43,36,31,69,49,28,30.20,29.99,3,1,7,0.00
2013-2-20,59,53,48,47,39,28,69,60,35,30.11,29.80,3,1,11,0.00
2013-2-21,57,57,57,46,45,43,66,63,60,29.80,29.77,2,2,4,0.00
2013-2-24,70,64,61,54,51,48,68,62,51,29.81,29.63,1,0,3,0.00
2013-2-25,79,63,47,57,38,30,65,42,20,29.64,29.39,6,1,10,0.00
2013-2-26,68,52,42,42,37,33,70,57,36,29.88,29.64,4,1,10,0.00
2013-2-27,78,54,37,54,35,20,67,49,25,30.08,29.85,4,1,10,0.00
2013-2-28,60,46,37,38,32,28,71,59,33,30.20,30.06,2,0,6,0.00
2013-3-1,70,50,31,36,30,19,70,49,26,30.20,30.06,2,0,6,0.00
2013-3-2,59,44,33,32,28,24,71,56,32,30.27,30.15,3,1,14,0.00
2013-3-3,69,47,26,42,30,14,70,53,28,30.23,29.96,3,0,5,0.00
2013-3-4,75,63,51,61,47,31,63,56,45,29.97,29.74,6,2,14,0.00
2013-3-5,77,63,45,51,39,29,65,42,24,30.24,29.76,5,2,11,0.00
2013-3-6,76,52,33,36,30,24,70,47,18,30.34,30.17,2,0,4,0.00
2013-3-7,71,52,34,48,37,20,69,57,35,30.26,30.13,2,0,4,0.00
2013-3-8,73,57,41,58,43,24,67,59,47,30.19,30.03,3,0,6,0.00
2013-3-9,74,63,55,60,44,32,61,49,38,30.03,29.76,5,1,7,0.00
2013-3-10,68,59,51,52,38,29,66,46,38,29.97,29.71,4,1,8,0.00
2013-3-11,69,52,41,40,35,29,68,54,30,30.05,29.91,3,1,10,0.00
2013-3-12,78,53,30,43,32,16,68,49,24,30.20,30.02,2,0,2,0.00
2013-3-13,47,44,42,34,29,25,61,56,52,30.22,30.20,0,0,0,0.00
2013-3-23,72,69,66,47,40,38,42,35,32,29.67,29.51,1,0,3,0.00
2013-3-24,69,58,44,46,37,31,65,47,30,30.06,29.57,4,1,10,0.00
2013-3-25,67,49,33,33,27,20,68,46,21,30.29,30.06,3,1,9,0.00
2013-3-26,68,49,31,32,27,22,69,45,21,30.42,30.26,3,0,7,0.00
2013-3-27,70,50,30,45,34,16,67,54,36,30.34,30.16,2,0,7,0.00
2013-3-28,74,59,47,58,43,29,66,57,40,30.25,30.14,1,0,4,0.00
2013-3-29,76,63,51,62,43,27,62,49,34,30.20,30.08,2,0,5,0.00
2013-3-30,77,66,57,62,44,31,60,46,34,30.10,29.92,3,0,7,0.00
2013-3-31,79,65,58,63,39,32,61,40,33,29.93,29.82,5,0,8,0.00
2013-4-1,85,68,59,68,46,32,66,47,34,30.03,29.90,1,0,3,0.00
2013-4-2,76,66,56,62,47,31,64,52,36,29.98,29.80,2,0,4,0.00
2013-4-3,62,54,47,44,33,27,62,46,37,30.03,29.75,4,1,10,0.00
2013-4-4,54,49,45,43,33,24,65,55,43,30.10,29.94,2,0,4,0.00
2013-4-5,82,59,40,55,41,22,67,53,35,30.18,30.02,1,0,6,0.00
2013-4-6,73,56,45,59,37,24,65,50,38,30.05,29.92,3,0,6,0.00
2013-4-7,78,66,54,63,47,30,63,50,37,29.95,29.82,2,0,5,0.00
2013-4-9,76,73,72,53,48,45,45,41,38,29.78,29.70,3,2,5,0.00
2013-4-10,72,72,71,47,46,44,41,39,38,29.78,29.73,2,1,3,0.00
2013-4-14,79,69,62,65,48,35,64,46,35,29.70,29.62,3,0,6,0.00
2013-4-15,86,73,59,70,48,32,60,42,32,29.82,29.69,3,0,4,0.00
2013-4-16,83,74,72,63,46,41,52,37,32,29.92,29.79,2,0,5,0.00
2013-4-17,76,73,71,54,46,42,46,38,33,29.92,29.75,1,0,5,0.00
2013-4-18,75,66,49,54,43,28,55,43,34,29.98,29.66,0,0,0,0.00
2013-4-19,50,46,43,38,35,33,68,64,55,30.15,29.97,0,0,0,0.00
2013-4-21,80,67,53,57,50,33,66,54,43,30.06,30.01,0,0,0,0.00
2013-4-22,52,49,47,32,28,26,46,43,41,30.07,30.02,0,0,0,0.00
2013-4-28,81,72,61,68,56,37,68,58,41,29.88,29.82,0,0,0,0.00
2013-4-29,61,58,57,37,34,32,41,39,39,29.88,29.83,0,0,0,0.00
2013-5-1,80,73,67,65,54,43,61,52,42,29.83,29.77,0,0,0,0.00
2013-5-2,67,65,64,42,38,37,41,37,36,29.85,29.82,0,0,0,0.00
2013-5-7,71,68,64,59,54,45,67,62,50,29.96,29.93,0,0,0,0.00
2013-5-8,84,69,55,68,49,30,66,50,35,30.02,29.93,0,0,0,0.00
2013-5-9,75,70,63,54,42,35,47,37,33,29.97,29.82,0,0,0,0.00
2013-5-14,85,74,62,64,52,39,67,48,34,30.11,30.05,0,0,0,0.00
2013-5-15,63,61,60,39,36,34,40,39,39,30.09,30.06,0,0,0,0.00
2013-5-21,86,79,76,71,57,48,61,47,38,29.80,29.67,0,0,0,0.00
2013-5-22,89,77,66,75,54,38,63,46,33,29.87,29.71,0,0,0,0.00
2013-5-23,88,78,69,75,55,39,64,47,31,30.00,29.85,0,0,0,0.00
2013-5-24,93,78,69,79,56,40,67,48,31,30.08,29.95,0,0,0,0.00
2013-5-25,89,77,68,75,56,40,66,50,35,30.10,30.01,0,0,0,0.00
2013-5-26,88,77,68,76,57,40,69,52,34,30.05,29.96,0,0,0,0.00
2013-5-27,88,77,65,74,58,37,68,53,33,30.00,29.88,0,0,0,0.00
2013-5-28,88,78,70,74,59,42,69,53,36,29.92,29.83,0,0,0,0.00
2013-5-29,86,77,71,74,58,43,66,52,36,29.86,29.77,0,0,0,0.00
2013-5-30,87,80,73,74,59,45,65,51,37,29.85,29.77,0,0,0,0.00
2013-5-31,90,80,76,76,58,46,64,48,34,29.86,29.79,0,0,0,0.00
2013-6-1,91,81,75,77,60,45,65,48,34,29.84,29.78,0,0,0,0.00
2013-6-2,88,76,67,75,52,38,66,45,32,29.97,29.82,0,0,0,0.00
2013-6-3,96,78,65,74,57,36,68,48,34,29.89,29.77,0,0,0,0.00
2013-6-4,97,80,68,78,61,41,68,52,36,29.87,29.75,0,0,0,0.00
2013-6-5,99,82,69,81,60,40,68,49,33,29.83,29.69,0,0,0,0.00
2013-6-6,94,79,66,80,57,37,68,48,32,29.86,29.67,0,0,0,0.00
2013-6-7,66,66,64,38,37,36,35,35,34,29.81,29.79,0,0,0,0.00
2013-6-9,91,76,69,78,52,40,67,45,33,29.92,29.77,0,0,0,0.00
2013-6-10,96,79,67,82,59,39,70,52,32,29.93,29.88,0,0,0,0.00
2013-6-11,94,81,70,81,62,42,70,53,33,29.99,29.92,0,0,0,0.00
2013-6-12,94,81,70,80,61,42,69,51,33,30.01,29.90,0,0,0,0.00
2013-6-13,77,76,75,49,47,45,38,36,35,29.95,29.94,0,0,0,0.00
2013-7-18,85,73,68,76,54,41,76,51,34,30.08,29.97,0,0,0,0.00
2013-7-19,89,75,68,79,55,42,74,51,36,30.00,29.88,0,0,0,0.00
2013-7-20,94,77,68,78,58,41,75,52,35,29.93,29.83,0,0,0,0.00
2013-7-21,90,78,71,80,59,43,73,54,34,29.93,29.86,0,0,0,0.00
2013-7-22,94,86,77,83,73,46,73,64,33,29.97,29.89,0,0,0,0.00
2013-7-23,95,83,75,82,63,45,73,54,33,29.98,29.84,0,0,0,0.00
2013-7-24,94,81,72,82,62,44,73,54,34,29.95,29.81,0,0,0,0.00
2013-7-25,98,84,76,82,68,50,73,58,40,29.97,29.87,0,0,0,0.00
2013-7-26,97,84,74,81,65,45,72,55,33,29.99,29.85,0,0,0,0.00
2013-7-27,98,83,75,83,66,45,73,58,33,29.88,29.79,0,0,0,0.00
2013-7-28,94,78,71,81,58,45,72,50,34,29.93,29.84,0,0,0,0.00
2013-7-29,96,82,71,81,61,41,73,51,31,30.03,29.92,0,0,0,0.00
2013-7-30,97,82,70,80,62,42,73,51,33,30.07,29.97,0,0,0,0.00
2013-8-6,83,81,78,70,62,53,65,53,42,29.88,29.84,0,0,0,0.00
2013-8-7,102,85,76,81,64,46,73,51,34,29.91,29.78,0,0,0,0.00
2013-8-8,101,84,72,80,64,43,74,52,33,29.89,29.79,0,0,0,0.00
2013-8-9,105,86,69,81,67,43,74,55,36,29.92,29.79,0,0,0,0.00
2013-8-10,98,80,73,83,60,44,75,52,35,30.00,29.89,0,0,0,0.00
2013-8-11,98,79,71,83,57,42,75,47,33,30.01,29.95,0,0,0,0.00
2013-8-14,74,73,73,45,45,44,36,36,36,29.93,29.90,0,0,0,0.00
2013-8-15,73,72,70,56,47,43,59,41,35,29.97,29.85,0,0,0,0.00
2013-8-28,82,80,78,75,72,68,79,77,71,29.96,29.93,0,0,0,0.00
2013-8-29,104,84,72,79,68,48,78,58,38,30.00,29.87,0,0,0,0.00
2013-8-30,102,84,72,81,67,47,77,59,39,29.96,29.83,0,0,0,0.00
2013-8-31,99,82,70,79,65,46,77,57,39,29.90,29.77,0,0,0,0.00
2013-9-1,100,83,70,78,65,46,76,56,41,29.88,29.76,0,0,0,0.00
2013-9-2,106,86,71,80,67,46,77,55,36,29.92,29.77,0,0,0,0.00
2013-9-3,103,83,72,81,64,47,76,53,41,29.91,29.79,0,0,0,0.00
2013-9-4,102,82,69,81,63,44,77,53,36,29.98,29.86,0,0,0,0.00
2013-9-5,75,75,75,58,58,56,55,55,54,29.97,29.96,0,0,0,0.00
2013-9-6,90,90,88,79,78,76,72,68,65,29.92,29.91,0,0,0,0.00